Terminal Aerodrome Forecast
Issued by NWS Upton, NY

Home | Current Version | Previous Version | Text Only | Print | Product List | Glossary On
Versions: 1 2 3 4 5 6 7 8 9 10 11 12 13 14 15 16 17 18 19 20 21 22 23 24 25 26 27 28 29 30
000
FTUS41 KOKX 221900 AAA
TAFEWR
TAF AMD
KEWR 221931Z 2220/2324 01015G23KT 6SM SHRA BR BKN020 OVC025
     FM230000 35018G28KT 4SM -RA BR BKN015
     FM230600 34016G26KT 4SM -RA BR BKN015
     FM231300 34018G28KT 6SM BR VCSH BKN015
     FM231800 33018G30KT P6SM OVC025=

USA.gov is the U.S. government's official web portal to all federal, state and local government web resources and services.